Terminal Aerodrome Forecast
Issued by NWS

Home | Current Version | Previous Version | Text Only | Print | Product List | Glossary On
Versions: 1 2 3 4 5 6 7 8 9 10 11 12 13 14 15 16 17 18 19 20 21 22 23 24 25 26 27 28 29 30 31
000
FTUS41 KOKX 041700
TAFHPN
TAF
KHPN 041726Z 0418/0518 27005KT 4SM -RA BR FEW020 OVC090
     FM042200 25006KT 2SM -RA BR SCT008 BKN050
     FM050300 28004KT 1SM -RASN BR OVC008
     FM050500 31007KT 1SM -SN BR VV009
     FM051200 34007KT 2SM -SN BR SCT010 BKN020
     FM051700 34012G18KT P6SM SCT020 OVC060 PROB30 0517/0518 2SM -SN
      BKN020 OVC060
      AMD NOT SKED=

USA.gov is the U.S. government's official web portal to all federal, state and local government web resources and services.